sensor_id;sensor_type;location;lat;lon;timestamp;temperature;humidity
59311;DHT22;45078;51.654;21.250;2023-05-19T00:00:55;9.90;99.90
59311;DHT22;45078;51.654;21.250;2023-05-19T00:03:21;10.00;99.90
59311;DHT22;45078;51.654;21.250;2023-05-19T00:05:48;9.90;99.90
59311;DHT22;45078;51.654;21.250;2023-05-19T00:08:16;10.00;99.90
59311;DHT22;45078;51.654;21.250;2023-05-19T00:10:43;10.00;99.90
59311;DHT22;45078;51.654;21.250;2023-05-19T00:13:09;10.00;99.90
59311;DHT22;45078;51.654;21.250;2023-05-19T00:15:35;9.90;99.90
59311;DHT22;45078;51.654;21.250;2023-05-19T00:18:01;10.00;99.90
59311;DHT22;45078;51.654;21.250;2023-05-19T00:20:27;10.00;99.90
59311;DHT22;45078;51.654;21.250;2023-05-19T00:22:53;10.00;99.90
59311;DHT22;45078;51.654;21.250;2023-05-19T00:25:18;9.90;99.90
59311;DHT22;45078;51.654;21.250;2023-05-19T00:27:44;9.90;99.90
59311;DHT22;45078;51.654;21.250;2023-05-19T00:30:10;9.90;99.90
59311;DHT22;45078;51.654;21.250;2023-05-19T00:32:36;9.90;99.90
59311;DHT22;45078;51.654;21.250;2023-05-19T00:35:02;9.90;99.90
59311;DHT22;45078;51.654;21.250;2023-05-19T00:37:28;9.90;99.90
59311;DHT22;45078;51.654;21.250;2023-05-19T00:39:53;9.90;99.90
59311;DHT22;45078;51.654;21.250;2023-05-19T00:42:20;9.90;99.90
59311;DHT22;45078;51.654;21.250;2023-05-19T00:44:45;9.90;99.90
59311;DHT22;45078;51.654;21.250;2023-05-19T00:47:11;9.90;99.90
59311;DHT22;45078;51.654;21.250;2023-05-19T00:49:37;9.90;99.90
59311;DHT22;45078;51.654;21.250;2023-05-19T00:52:05;9.90;99.90
59311;DHT22;45078;51.654;21.250;2023-05-19T00:54:32;9.90;99.90
59311;DHT22;45078;51.654;21.250;2023-05-19T00:56:59;9.90;99.90
59311;DHT22;45078;51.654;21.250;2023-05-19T00:59:25;9.90;99.90
59311;DHT22;45078;51.654;21.250;2023-05-19T01:01:52;9.90;99.90
59311;DHT22;45078;51.654;21.250;2023-05-19T01:04:21;9.90;99.90
59311;DHT22;45078;51.654;21.250;2023-05-19T01:06:47;9.90;99.90
59311;DHT22;45078;51.654;21.250;2023-05-19T01:09:15;9.90;99.90
59311;DHT22;45078;51.654;21.250;2023-05-19T01:11:41;9.90;99.90
59311;DHT22;45078;51.654;21.250;2023-05-19T01:14:07;9.90;99.90
59311;DHT22;45078;51.654;21.250;2023-05-19T01:16:38;9.90;99.90
59311;DHT22;45078;51.654;21.250;2023-05-19T01:21:43;9.90;99.90
59311;DHT22;45078;51.654;21.250;2023-05-19T01:27:20;9.90;99.90
59311;DHT22;45078;51.654;21.250;2023-05-19T01:32:40;9.90;99.90
59311;DHT22;45078;51.654;21.250;2023-05-19T01:35:08;10.00;99.90
59311;DHT22;45078;51.654;21.250;2023-05-19T01:37:38;10.00;99.90
59311;DHT22;45078;51.654;21.250;2023-05-19T01:40:06;9.90;99.90
59311;DHT22;45078;51.654;21.250;2023-05-19T01:42:32;9.90;99.90
59311;DHT22;45078;51.654;21.250;2023-05-19T01:45:03;9.90;99.90
59311;DHT22;45078;51.654;21.250;2023-05-19T01:47:33;9.90;99.90
59311;DHT22;45078;51.654;21.250;2023-05-19T01:50:02;9.90;99.90
59311;DHT22;45078;51.654;21.250;2023-05-19T01:52:28;9.90;99.90
59311;DHT22;45078;51.654;21.250;2023-05-19T01:54:54;9.90;99.90
59311;DHT22;45078;51.654;21.250;2023-05-19T02:03:29;9.90;99.90
59311;DHT22;45078;51.654;21.250;2023-05-19T02:11:35;9.90;99.90
59311;DHT22;45078;51.654;21.250;2023-05-19T02:16:59;9.80;99.90
59311;DHT22;45078;51.654;21.250;2023-05-19T02:19:32;9.80;99.90
59311;DHT22;45078;51.654;21.250;2023-05-19T02:21:58;9.80;99.90
59311;DHT22;45078;51.654;21.250;2023-05-19T02:24:23;9.80;99.90
59311;DHT22;45078;51.654;21.250;2023-05-19T02:26:50;9.80;99.90
59311;DHT22;45078;51.654;21.250;2023-05-19T02:29:17;9.80;99.90
59311;DHT22;45078;51.654;21.250;2023-05-19T02:31:43;9.70;99.90
59311;DHT22;45078;51.654;21.250;2023-05-19T02:34:09;9.80;99.90
59311;DHT22;45078;51.654;21.250;2023-05-19T02:36:36;9.70;99.90
59311;DHT22;45078;51.654;21.250;2023-05-19T02:39:03;9.70;99.90
59311;DHT22;45078;51.654;21.250;2023-05-19T02:41:29;9.70;99.90
59311;DHT22;45078;51.654;21.250;2023-05-19T02:43:55;9.70;99.90
59311;DHT22;45078;51.654;21.250;2023-05-19T02:46:21;9.70;99.90
59311;DHT22;45078;51.654;21.250;2023-05-19T02:48:46;9.70;99.90
59311;DHT22;45078;51.654;21.250;2023-05-19T02:51:12;9.70;99.90
59311;DHT22;45078;51.654;21.250;2023-05-19T02:53:38;9.70;99.90
59311;DHT22;45078;51.654;21.250;2023-05-19T02:56:04;9.70;99.90
59311;DHT22;45078;51.654;21.250;2023-05-19T02:58:30;9.70;99.90
59311;DHT22;45078;51.654;21.250;2023-05-19T03:00:56;9.70;99.90
59311;DHT22;45078;51.654;21.250;2023-05-19T03:03:21;9.70;99.90
59311;DHT22;45078;51.654;21.250;2023-05-19T03:05:47;9.70;99.90
59311;DHT22;45078;51.654;21.250;2023-05-19T03:08:13;9.70;99.90
59311;DHT22;45078;51.654;21.250;2023-05-19T03:10:39;9.70;99.90
59311;DHT22;45078;51.654;21.250;2023-05-19T03:13:05;9.70;99.90
59311;DHT22;45078;51.654;21.250;2023-05-19T03:15:30;9.70;99.90
59311;DHT22;45078;51.654;21.250;2023-05-19T03:17:57;9.70;99.90
59311;DHT22;45078;51.654;21.250;2023-05-19T03:20:23;9.70;99.90
59311;DHT22;45078;51.654;21.250;2023-05-19T03:22:49;9.70;99.90
59311;DHT22;45078;51.654;21.250;2023-05-19T03:25:15;9.70;99.90
59311;DHT22;45078;51.654;21.250;2023-05-19T03:27:41;9.70;99.90
59311;DHT22;45078;51.654;21.250;2023-05-19T03:30:07;9.70;99.90
59311;DHT22;45078;51.654;21.250;2023-05-19T03:32:33;9.70;99.90
59311;DHT22;45078;51.654;21.250;2023-05-19T03:35:03;9.70;99.90
59311;DHT22;45078;51.654;21.250;2023-05-19T03:37:29;9.70;99.90
59311;DHT22;45078;51.654;21.250;2023-05-19T03:39:55;9.70;99.90
59311;DHT22;45078;51.654;21.250;2023-05-19T03:42:21;9.70;99.90
59311;DHT22;45078;51.654;21.250;2023-05-19T03:44:47;9.80;99.90
59311;DHT22;45078;51.654;21.250;2023-05-19T03:47:13;9.80;99.90
59311;DHT22;45078;51.654;21.250;2023-05-19T03:49:39;9.80;99.90
59311;DHT22;45078;51.654;21.250;2023-05-19T03:52:05;9.80;99.90
59311;DHT22;45078;51.654;21.250;2023-05-19T03:54:30;9.80;99.90
59311;DHT22;45078;51.654;21.250;2023-05-19T03:56:56;9.80;99.90
59311;DHT22;45078;51.654;21.250;2023-05-19T03:59:22;9.80;99.90
59311;DHT22;45078;51.654;21.250;2023-05-19T04:01:49;9.80;99.90
59311;DHT22;45078;51.654;21.250;2023-05-19T04:04:15;9.90;99.90
59311;DHT22;45078;51.654;21.250;2023-05-19T04:06:40;9.90;99.90
59311;DHT22;45078;51.654;21.250;2023-05-19T04:09:13;9.90;99.90
59311;DHT22;45078;51.654;21.250;2023-05-19T04:11:41;9.90;99.90
59311;DHT22;45078;51.654;21.250;2023-05-19T04:14:08;9.90;99.90
59311;DHT22;45078;51.654;21.250;2023-05-19T04:16:34;10.00;99.90
59311;DHT22;45078;51.654;21.250;2023-05-19T04:19:00;10.00;99.90
59311;DHT22;45078;51.654;21.250;2023-05-19T04:21:26;10.00;99.90
59311;DHT22;45078;51.654;21.250;2023-05-19T04:23:52;10.00;99.90
59311;DHT22;45078;51.654;21.250;2023-05-19T04:26:18;10.00;99.90
59311;DHT22;45078;51.654;21.250;2023-05-19T04:28:46;10.10;99.90
59311;DHT22;45078;51.654;21.250;2023-05-19T04:31:15;10.10;99.90
59311;DHT22;45078;51.654;21.250;2023-05-19T04:33:41;10.10;99.90
59311;DHT22;45078;51.654;21.250;2023-05-19T04:36:08;10.10;99.90
59311;DHT22;45078;51.654;21.250;2023-05-19T04:38:38;10.10;99.90
59311;DHT22;45078;51.654;21.250;2023-05-19T04:41:07;10.20;99.90
59311;DHT22;45078;51.654;21.250;2023-05-19T04:43:39;10.20;99.90
59311;DHT22;45078;51.654;21.250;2023-05-19T04:46:12;10.30;99.90
59311;DHT22;45078;51.654;21.250;2023-05-19T04:48:38;10.30;99.90
59311;DHT22;45078;51.654;21.250;2023-05-19T04:51:07;10.40;99.90
59311;DHT22;45078;51.654;21.250;2023-05-19T04:53:32;10.40;99.90
59311;DHT22;45078;51.654;21.250;2023-05-19T04:55:58;10.40;99.90
59311;DHT22;45078;51.654;21.250;2023-05-19T04:58:27;10.40;99.90
59311;DHT22;45078;51.654;21.250;2023-05-19T05:00:53;10.40;99.90
59311;DHT22;45078;51.654;21.250;2023-05-19T05:03:25;10.50;99.90
59311;DHT22;45078;51.654;21.250;2023-05-19T05:05:51;10.50;99.90
59311;DHT22;45078;51.654;21.250;2023-05-19T05:08:17;10.60;99.90
59311;DHT22;45078;51.654;21.250;2023-05-19T05:10:51;10.60;99.90
59311;DHT22;45078;51.654;21.250;2023-05-19T05:13:19;10.60;99.90
59311;DHT22;45078;51.654;21.250;2023-05-19T05:15:45;10.60;99.90
59311;DHT22;45078;51.654;21.250;2023-05-19T05:18:12;10.60;99.90
59311;DHT22;45078;51.654;21.250;2023-05-19T05:20:43;10.60;99.90
59311;DHT22;45078;51.654;21.250;2023-05-19T05:23:10;10.60;99.90
59311;DHT22;45078;51.654;21.250;2023-05-19T05:25:43;10.70;99.90
59311;DHT22;45078;51.654;21.250;2023-05-19T05:28:09;10.70;99.90
59311;DHT22;45078;51.654;21.250;2023-05-19T05:30:35;10.70;99.90
59311;DHT22;45078;51.654;21.250;2023-05-19T05:33:01;10.80;99.90
59311;DHT22;45078;51.654;21.250;2023-05-19T05:35:27;10.90;99.90
59311;DHT22;45078;51.654;21.250;2023-05-19T05:37:53;10.90;99.90
59311;DHT22;45078;51.654;21.250;2023-05-19T05:40:20;10.90;99.90
59311;DHT22;45078;51.654;21.250;2023-05-19T05:42:46;11.00;99.90
59311;DHT22;45078;51.654;21.250;2023-05-19T05:45:11;11.10;99.90
59311;DHT22;45078;51.654;21.250;2023-05-19T05:47:37;11.10;99.90
59311;DHT22;45078;51.654;21.250;2023-05-19T05:50:08;11.20;99.90
59311;DHT22;45078;51.654;21.250;2023-05-19T05:52:36;11.30;99.90
59311;DHT22;45078;51.654;21.250;2023-05-19T05:55:03;11.40;99.90
59311;DHT22;45078;51.654;21.250;2023-05-19T05:57:29;11.50;99.90
59311;DHT22;45078;51.654;21.250;2023-05-19T05:59:59;11.50;99.90
59311;DHT22;45078;51.654;21.250;2023-05-19T06:02:25;11.50;99.90
59311;DHT22;45078;51.654;21.250;2023-05-19T06:04:52;11.60;99.90
59311;DHT22;45078;51.654;21.250;2023-05-19T06:07:19;11.60;99.90
59311;DHT22;45078;51.654;21.250;2023-05-19T06:09:45;11.70;99.90
59311;DHT22;45078;51.654;21.250;2023-05-19T06:12:14;11.70;99.90
59311;DHT22;45078;51.654;21.250;2023-05-19T06:14:40;11.80;99.90
59311;DHT22;45078;51.654;21.250;2023-05-19T06:17:05;11.80;99.90
59311;DHT22;45078;51.654;21.250;2023-05-19T06:19:31;11.80;99.90
59311;DHT22;45078;51.654;21.250;2023-05-19T06:21:57;11.90;99.90
59311;DHT22;45078;51.654;21.250;2023-05-19T06:24:22;11.90;99.90
59311;DHT22;45078;51.654;21.250;2023-05-19T06:26:48;11.90;99.90
59311;DHT22;45078;51.654;21.250;2023-05-19T06:29:14;12.00;99.90
59311;DHT22;45078;51.654;21.250;2023-05-19T06:31:40;12.00;99.90
59311;DHT22;45078;51.654;21.250;2023-05-19T06:34:05;12.10;99.90
59311;DHT22;45078;51.654;21.250;2023-05-19T06:36:31;12.00;99.90
59311;DHT22;45078;51.654;21.250;2023-05-19T06:38:57;11.90;99.90
59311;DHT22;45078;51.654;21.250;2023-05-19T06:41:23;12.00;99.90
59311;DHT22;45078;51.654;21.250;2023-05-19T06:43:48;12.00;99.90
59311;DHT22;45078;51.654;21.250;2023-05-19T06:46:14;12.00;99.90
59311;DHT22;45078;51.654;21.250;2023-05-19T06:48:42;12.10;99.90
59311;DHT22;45078;51.654;21.250;2023-05-19T06:51:07;12.10;99.90
59311;DHT22;45078;51.654;21.250;2023-05-19T06:53:34;12.20;99.90
59311;DHT22;45078;51.654;21.250;2023-05-19T06:56:00;12.10;99.90
59311;DHT22;45078;51.654;21.250;2023-05-19T06:58:26;12.00;99.90
59311;DHT22;45078;51.654;21.250;2023-05-19T07:00:52;12.00;99.90
59311;DHT22;45078;51.654;21.250;2023-05-19T07:03:18;12.10;99.90
59311;DHT22;45078;51.654;21.250;2023-05-19T07:05:43;12.10;99.90
59311;DHT22;45078;51.654;21.250;2023-05-19T07:08:09;12.10;99.90
59311;DHT22;45078;51.654;21.250;2023-05-19T07:10:35;12.10;99.90
59311;DHT22;45078;51.654;21.250;2023-05-19T07:13:01;12.20;99.90
59311;DHT22;45078;51.654;21.250;2023-05-19T07:15:26;12.30;99.90
59311;DHT22;45078;51.654;21.250;2023-05-19T07:17:52;12.40;99.90
59311;DHT22;45078;51.654;21.250;2023-05-19T07:20:18;12.50;99.90
59311;DHT22;45078;51.654;21.250;2023-05-19T07:22:43;12.50;99.90
59311;DHT22;45078;51.654;21.250;2023-05-19T07:25:09;12.50;99.90
59311;DHT22;45078;51.654;21.250;2023-05-19T07:27:35;12.60;99.90
59311;DHT22;45078;51.654;21.250;2023-05-19T07:30:02;12.60;99.90
59311;DHT22;45078;51.654;21.250;2023-05-19T07:32:28;12.60;99.90
59311;DHT22;45078;51.654;21.250;2023-05-19T07:34:54;12.60;99.90
59311;DHT22;45078;51.654;21.250;2023-05-19T07:37:19;12.60;99.90
59311;DHT22;45078;51.654;21.250;2023-05-19T07:39:45;12.80;99.90
59311;DHT22;45078;51.654;21.250;2023-05-19T07:42:11;12.80;99.90
59311;DHT22;45078;51.654;21.250;2023-05-19T07:44:37;12.70;99.90
59311;DHT22;45078;51.654;21.250;2023-05-19T07:47:02;12.70;99.90
59311;DHT22;45078;51.654;21.250;2023-05-19T07:49:28;12.70;99.90
59311;DHT22;45078;51.654;21.250;2023-05-19T07:51:54;12.70;99.90
59311;DHT22;45078;51.654;21.250;2023-05-19T07:54:20;12.70;99.90
59311;DHT22;45078;51.654;21.250;2023-05-19T07:56:46;12.70;99.90
59311;DHT22;45078;51.654;21.250;2023-05-19T07:59:15;12.70;99.90
59311;DHT22;45078;51.654;21.250;2023-05-19T08:01:41;12.70;99.90
59311;DHT22;45078;51.654;21.250;2023-05-19T08:04:07;12.70;99.90
59311;DHT22;45078;51.654;21.250;2023-05-19T08:06:33;12.90;99.90
59311;DHT22;45078;51.654;21.250;2023-05-19T08:08:59;12.90;99.90
59311;DHT22;45078;51.654;21.250;2023-05-19T08:11:25;12.70;99.90
59311;DHT22;45078;51.654;21.250;2023-05-19T08:13:51;12.60;99.90
59311;DHT22;45078;51.654;21.250;2023-05-19T08:16:17;12.70;99.90
59311;DHT22;45078;51.654;21.250;2023-05-19T08:18:42;12.80;99.90
59311;DHT22;45078;51.654;21.250;2023-05-19T08:21:08;12.90;99.90
59311;DHT22;45078;51.654;21.250;2023-05-19T08:23:34;13.00;99.90
59311;DHT22;45078;51.654;21.250;2023-05-19T08:26:01;12.90;99.90
59311;DHT22;45078;51.654;21.250;2023-05-19T08:28:27;12.90;99.90
59311;DHT22;45078;51.654;21.250;2023-05-19T08:30:53;12.90;99.90
59311;DHT22;45078;51.654;21.250;2023-05-19T08:33:19;13.10;99.90
59311;DHT22;45078;51.654;21.250;2023-05-19T08:35:46;13.20;99.90
59311;DHT22;45078;51.654;21.250;2023-05-19T08:38:12;13.20;99.90
59311;DHT22;45078;51.654;21.250;2023-05-19T08:40:40;12.90;99.90
59311;DHT22;45078;51.654;21.250;2023-05-19T08:43:07;12.90;99.90
59311;DHT22;45078;51.654;21.250;2023-05-19T08:45:33;13.00;99.90
59311;DHT22;45078;51.654;21.250;2023-05-19T08:47:59;13.10;99.90
59311;DHT22;45078;51.654;21.250;2023-05-19T08:50:29;13.10;99.90
59311;DHT22;45078;51.654;21.250;2023-05-19T08:53:03;13.20;99.90
59311;DHT22;45078;51.654;21.250;2023-05-19T08:55:57;13.30;99.90
59311;DHT22;45078;51.654;21.250;2023-05-19T08:58:25;13.40;99.90
59311;DHT22;45078;51.654;21.250;2023-05-19T09:00:53;13.30;99.90
59311;DHT22;45078;51.654;21.250;2023-05-19T09:03:20;13.50;99.90
59311;DHT22;45078;51.654;21.250;2023-05-19T09:05:47;13.60;99.90
59311;DHT22;45078;51.654;21.250;2023-05-19T09:08:13;13.70;99.90
59311;DHT22;45078;51.654;21.250;2023-05-19T09:10:39;13.70;99.90
59311;DHT22;45078;51.654;21.250;2023-05-19T09:13:05;13.80;99.90
59311;DHT22;45078;51.654;21.250;2023-05-19T09:15:31;13.90;99.90
59311;DHT22;45078;51.654;21.250;2023-05-19T09:18:12;14.00;99.90
59311;DHT22;45078;51.654;21.250;2023-05-19T09:20:42;14.20;99.90
59311;DHT22;45078;51.654;21.250;2023-05-19T09:23:13;14.20;99.90
59311;DHT22;45078;51.654;21.250;2023-05-19T09:25:52;14.20;99.90
59311;DHT22;45078;51.654;21.250;2023-05-19T09:28:25;14.20;99.90
59311;DHT22;45078;51.654;21.250;2023-05-19T09:31:01;14.20;99.90
59311;DHT22;45078;51.654;21.250;2023-05-19T09:33:38;14.10;99.90
59311;DHT22;45078;51.654;21.250;2023-05-19T09:36:05;14.00;99.90
59311;DHT22;45078;51.654;21.250;2023-05-19T09:38:34;14.00;99.90
59311;DHT22;45078;51.654;21.250;2023-05-19T09:41:00;13.90;99.90
59311;DHT22;45078;51.654;21.250;2023-05-19T09:43:30;14.00;99.90
59311;DHT22;45078;51.654;21.250;2023-05-19T09:46:03;14.10;99.90
59311;DHT22;45078;51.654;21.250;2023-05-19T09:48:30;14.20;99.90
59311;DHT22;45078;51.654;21.250;2023-05-19T09:50:56;14.30;99.90
59311;DHT22;45078;51.654;21.250;2023-05-19T09:53:23;14.30;99.90
59311;DHT22;45078;51.654;21.250;2023-05-19T09:55:50;14.40;99.90
59311;DHT22;45078;51.654;21.250;2023-05-19T09:58:19;14.40;99.90
59311;DHT22;45078;51.654;21.250;2023-05-19T10:00:46;14.50;99.90
59311;DHT22;45078;51.654;21.250;2023-05-19T10:03:12;14.50;99.90
59311;DHT22;45078;51.654;21.250;2023-05-19T10:05:39;14.50;99.90
59311;DHT22;45078;51.654;21.250;2023-05-19T10:08:06;14.40;99.90
59311;DHT22;45078;51.654;21.250;2023-05-19T10:10:36;14.50;99.90
59311;DHT22;45078;51.654;21.250;2023-05-19T10:13:03;14.60;99.90
59311;DHT22;45078;51.654;21.250;2023-05-19T10:15:29;14.60;99.90
59311;DHT22;45078;51.654;21.250;2023-05-19T10:17:56;14.60;99.90
59311;DHT22;45078;51.654;21.250;2023-05-19T10:20:22;14.70;99.90
59311;DHT22;45078;51.654;21.250;2023-05-19T10:22:47;14.80;99.90
59311;DHT22;45078;51.654;21.250;2023-05-19T10:25:14;14.90;99.90
59311;DHT22;45078;51.654;21.250;2023-05-19T10:27:58;15.00;99.90
59311;DHT22;45078;51.654;21.250;2023-05-19T10:30:34;15.10;99.90
59311;DHT22;45078;51.654;21.250;2023-05-19T10:33:03;15.00;99.90
59311;DHT22;45078;51.654;21.250;2023-05-19T10:46:42;14.80;99.90
59311;DHT22;45078;51.654;21.250;2023-05-19T10:49:08;14.80;99.90
59311;DHT22;45078;51.654;21.250;2023-05-19T10:51:34;14.90;99.90
59311;DHT22;45078;51.654;21.250;2023-05-19T10:54:12;14.90;99.90
59311;DHT22;45078;51.654;21.250;2023-05-19T10:56:42;14.80;99.90
59311;DHT22;45078;51.654;21.250;2023-05-19T10:59:29;14.70;99.90
59311;DHT22;45078;51.654;21.250;2023-05-19T11:01:56;14.70;99.90
59311;DHT22;45078;51.654;21.250;2023-05-19T11:04:45;14.70;99.90
59311;DHT22;45078;51.654;21.250;2023-05-19T11:07:21;14.90;99.90
59311;DHT22;45078;51.654;21.250;2023-05-19T11:09:52;14.80;99.90
59311;DHT22;45078;51.654;21.250;2023-05-19T11:12:21;14.90;99.90
59311;DHT22;45078;51.654;21.250;2023-05-19T11:14:51;14.90;99.90
59311;DHT22;45078;51.654;21.250;2023-05-19T11:17:18;15.00;99.90
59311;DHT22;45078;51.654;21.250;2023-05-19T11:19:54;14.80;99.90
59311;DHT22;45078;51.654;21.250;2023-05-19T11:22:24;14.80;99.90
59311;DHT22;45078;51.654;21.250;2023-05-19T11:24:50;14.80;99.90
59311;DHT22;45078;51.654;21.250;2023-05-19T11:27:23;14.80;99.90
59311;DHT22;45078;51.654;21.250;2023-05-19T11:29:49;14.90;99.90
59311;DHT22;45078;51.654;21.250;2023-05-19T11:32:25;14.70;99.90
59311;DHT22;45078;51.654;21.250;2023-05-19T11:34:51;14.50;99.90
59311;DHT22;45078;51.654;21.250;2023-05-19T11:37:19;14.40;99.90
59311;DHT22;45078;51.654;21.250;2023-05-19T11:39:45;14.50;99.90
59311;DHT22;45078;51.654;21.250;2023-05-19T11:42:14;14.50;99.90
59311;DHT22;45078;51.654;21.250;2023-05-19T11:44:41;14.50;99.90
59311;DHT22;45078;51.654;21.250;2023-05-19T11:47:09;14.50;99.90
59311;DHT22;45078;51.654;21.250;2023-05-19T11:49:35;14.70;99.90
59311;DHT22;45078;51.654;21.250;2023-05-19T11:52:02;14.60;99.90
59311;DHT22;45078;51.654;21.250;2023-05-19T11:54:29;14.70;99.90
59311;DHT22;45078;51.654;21.250;2023-05-19T11:56:59;14.80;99.90
59311;DHT22;45078;51.654;21.250;2023-05-19T11:59:33;14.90;99.90
59311;DHT22;45078;51.654;21.250;2023-05-19T12:02:18;14.80;99.90
59311;DHT22;45078;51.654;21.250;2023-05-19T12:04:45;14.80;99.90
59311;DHT22;45078;51.654;21.250;2023-05-19T12:07:11;14.70;99.90
59311;DHT22;45078;51.654;21.250;2023-05-19T12:09:38;14.60;99.90
59311;DHT22;45078;51.654;21.250;2023-05-19T12:12:04;14.70;99.90
59311;DHT22;45078;51.654;21.250;2023-05-19T12:14:30;14.60;99.90
59311;DHT22;45078;51.654;21.250;2023-05-19T12:16:56;14.60;99.90
59311;DHT22;45078;51.654;21.250;2023-05-19T12:19:23;14.60;99.90
59311;DHT22;45078;51.654;21.250;2023-05-19T12:21:51;14.60;99.90
59311;DHT22;45078;51.654;21.250;2023-05-19T12:24:18;14.50;99.90
59311;DHT22;45078;51.654;21.250;2023-05-19T12:26:44;14.50;99.90
59311;DHT22;45078;51.654;21.250;2023-05-19T12:29:12;14.40;99.90
59311;DHT22;45078;51.654;21.250;2023-05-19T12:31:38;14.50;99.90
59311;DHT22;45078;51.654;21.250;2023-05-19T12:34:04;14.60;99.90
59311;DHT22;45078;51.654;21.250;2023-05-19T12:36:31;14.70;99.90
59311;DHT22;45078;51.654;21.250;2023-05-19T12:38:57;14.70;99.90
59311;DHT22;45078;51.654;21.250;2023-05-19T12:41:26;14.70;99.90
59311;DHT22;45078;51.654;21.250;2023-05-19T12:43:53;14.80;99.90
59311;DHT22;45078;51.654;21.250;2023-05-19T12:46:19;14.80;99.90
59311;DHT22;45078;51.654;21.250;2023-05-19T12:48:45;14.80;99.90
59311;DHT22;45078;51.654;21.250;2023-05-19T12:51:18;14.80;99.90
59311;DHT22;45078;51.654;21.250;2023-05-19T12:53:45;14.90;99.90
59311;DHT22;45078;51.654;21.250;2023-05-19T12:56:14;14.90;99.90
59311;DHT22;45078;51.654;21.250;2023-05-19T12:58:41;14.90;99.90
59311;DHT22;45078;51.654;21.250;2023-05-19T13:01:14;14.90;99.90
59311;DHT22;45078;51.654;21.250;2023-05-19T13:03:41;14.80;99.90
59311;DHT22;45078;51.654;21.250;2023-05-19T13:06:07;14.80;99.90
59311;DHT22;45078;51.654;21.250;2023-05-19T13:08:34;14.80;99.90
59311;DHT22;45078;51.654;21.250;2023-05-19T13:11:00;14.80;99.90
59311;DHT22;45078;51.654;21.250;2023-05-19T13:13:26;14.80;99.90
59311;DHT22;45078;51.654;21.250;2023-05-19T13:15:52;14.80;99.90
59311;DHT22;45078;51.654;21.250;2023-05-19T13:18:18;14.80;99.90
59311;DHT22;45078;51.654;21.250;2023-05-19T13:20:45;14.80;99.90
59311;DHT22;45078;51.654;21.250;2023-05-19T13:23:12;14.80;99.90
59311;DHT22;45078;51.654;21.250;2023-05-19T13:25:38;14.80;99.90
59311;DHT22;45078;51.654;21.250;2023-05-19T13:28:04;14.80;99.90
59311;DHT22;45078;51.654;21.250;2023-05-19T13:30:35;14.70;99.90
59311;DHT22;45078;51.654;21.250;2023-05-19T13:33:01;14.70;99.90
59311;DHT22;45078;51.654;21.250;2023-05-19T13:35:27;14.70;99.90
59311;DHT22;45078;51.654;21.250;2023-05-19T13:37:53;14.60;99.90
59311;DHT22;45078;51.654;21.250;2023-05-19T13:40:19;14.60;99.90
59311;DHT22;45078;51.654;21.250;2023-05-19T13:42:45;14.70;99.90
59311;DHT22;45078;51.654;21.250;2023-05-19T13:45:11;14.70;99.90
59311;DHT22;45078;51.654;21.250;2023-05-19T13:47:37;14.60;99.90
59311;DHT22;45078;51.654;21.250;2023-05-19T13:50:03;14.60;99.90
59311;DHT22;45078;51.654;21.250;2023-05-19T13:52:29;14.50;99.90
59311;DHT22;45078;51.654;21.250;2023-05-19T13:54:55;14.60;99.90
59311;DHT22;45078;51.654;21.250;2023-05-19T13:57:22;14.60;99.90
59311;DHT22;45078;51.654;21.250;2023-05-19T13:59:48;14.60;99.90
59311;DHT22;45078;51.654;21.250;2023-05-19T14:02:14;14.60;99.90
59311;DHT22;45078;51.654;21.250;2023-05-19T14:04:40;14.70;99.90
59311;DHT22;45078;51.654;21.250;2023-05-19T14:07:06;14.70;99.90
59311;DHT22;45078;51.654;21.250;2023-05-19T14:09:32;14.70;99.90
59311;DHT22;45078;51.654;21.250;2023-05-19T14:11:58;14.60;99.90
59311;DHT22;45078;51.654;21.250;2023-05-19T14:14:24;14.70;99.90
59311;DHT22;45078;51.654;21.250;2023-05-19T14:16:50;14.60;99.90
59311;DHT22;45078;51.654;21.250;2023-05-19T14:19:16;14.70;99.90
59311;DHT22;45078;51.654;21.250;2023-05-19T14:21:41;14.70;99.90
59311;DHT22;45078;51.654;21.250;2023-05-19T14:24:07;14.70;99.90
59311;DHT22;45078;51.654;21.250;2023-05-19T14:26:33;14.70;99.90
59311;DHT22;45078;51.654;21.250;2023-05-19T14:28:59;14.70;99.90
59311;DHT22;45078;51.654;21.250;2023-05-19T14:31:25;14.70;99.90
59311;DHT22;45078;51.654;21.250;2023-05-19T14:33:51;14.70;99.90
59311;DHT22;45078;51.654;21.250;2023-05-19T14:36:17;14.60;99.90
59311;DHT22;45078;51.654;21.250;2023-05-19T14:38:43;14.60;99.90
59311;DHT22;45078;51.654;21.250;2023-05-19T14:41:09;14.70;99.90
59311;DHT22;45078;51.654;21.250;2023-05-19T14:43:34;14.70;99.90
59311;DHT22;45078;51.654;21.250;2023-05-19T14:46:00;14.70;99.90
59311;DHT22;45078;51.654;21.250;2023-05-19T14:48:26;14.80;99.90
59311;DHT22;45078;51.654;21.250;2023-05-19T14:50:52;14.70;99.90
59311;DHT22;45078;51.654;21.250;2023-05-19T14:53:18;14.70;99.90
59311;DHT22;45078;51.654;21.250;2023-05-19T14:55:46;14.70;99.90
59311;DHT22;45078;51.654;21.250;2023-05-19T14:58:11;14.80;99.90
59311;DHT22;45078;51.654;21.250;2023-05-19T15:00:38;14.70;99.90
59311;DHT22;45078;51.654;21.250;2023-05-19T15:03:05;14.80;99.90
59311;DHT22;45078;51.654;21.250;2023-05-19T15:05:31;14.70;99.90
59311;DHT22;45078;51.654;21.250;2023-05-19T15:07:56;14.70;99.90
59311;DHT22;45078;51.654;21.250;2023-05-19T15:10:22;14.70;99.90
59311;DHT22;45078;51.654;21.250;2023-05-19T15:12:49;14.80;99.90
59311;DHT22;45078;51.654;21.250;2023-05-19T15:15:15;14.70;99.90
59311;DHT22;45078;51.654;21.250;2023-05-19T15:17:41;14.80;99.90
59311;DHT22;45078;51.654;21.250;2023-05-19T15:20:08;14.70;99.90
59311;DHT22;45078;51.654;21.250;2023-05-19T15:22:34;14.70;99.90
59311;DHT22;45078;51.654;21.250;2023-05-19T15:24:59;14.70;99.90
59311;DHT22;45078;51.654;21.250;2023-05-19T15:27:26;14.60;99.90
59311;DHT22;45078;51.654;21.250;2023-05-19T15:29:52;14.60;99.90
59311;DHT22;45078;51.654;21.250;2023-05-19T15:32:17;14.70;99.90
59311;DHT22;45078;51.654;21.250;2023-05-19T15:34:44;14.70;99.90
59311;DHT22;45078;51.654;21.250;2023-05-19T15:37:10;14.60;99.90
59311;DHT22;45078;51.654;21.250;2023-05-19T15:39:35;14.60;99.90
59311;DHT22;45078;51.654;21.250;2023-05-19T15:42:01;14.60;99.90
59311;DHT22;45078;51.654;21.250;2023-05-19T15:44:27;14.60;99.90
59311;DHT22;45078;51.654;21.250;2023-05-19T15:46:53;14.60;99.90
59311;DHT22;45078;51.654;21.250;2023-05-19T15:49:19;14.50;99.90
59311;DHT22;45078;51.654;21.250;2023-05-19T15:51:45;14.50;99.90
59311;DHT22;45078;51.654;21.250;2023-05-19T15:54:11;14.50;99.90